Time;durP1;ratioP1;P1;durP2;ratioP2;P2;SDS_P1;SDS_P2;PMS_P1;PMS_P2;Temp;Humidity;BMP_temperature;BMP_pressure;BME280_temperature;BME280_humidity;BME280_pressure;Samples;Min_cycle;Max_cycle;Signal;HPM_P1;HPM_P2
2023/08/01 00:01:23;;;;;;;6.50;4.40;;;;;;;16.97;84.48;97206.09;107351;1273;22519;-82
2023/08/01 00:03:52;;;;;;;8.70;4.30;;;;;;;17.04;84.45;97200.08;107271;1273;22845;-79
2023/08/01 00:06:21;;;;;;;7.40;4.80;;;;;;;17.10;84.45;97194.45;106995;1273;24355;-80
2023/08/01 00:08:49;;;;;;;9.10;4.70;;;;;;;17.14;84.25;97193.20;107299;1273;22529;-79
2023/08/01 00:11:17;;;;;;;7.60;4.50;;;;;;;17.17;84.19;97190.70;107350;1273;25439;-80
2023/08/01 00:13:45;;;;;;;5.90;3.80;;;;;;;17.18;84.06;97192.59;107344;1273;22692;-80
2023/08/01 00:16:16;;;;;;;8.60;4.00;;;;;;;17.18;83.96;97192.67;107332;1273;24033;-80
2023/08/01 00:18:44;;;;;;;10.60;4.90;;;;;;;17.19;83.78;97188.55;107233;1273;25182;-79
2023/08/01 00:21:12;;;;;;;8.20;4.40;;;;;;;17.18;83.62;97186.83;107158;1273;24238;-80
2023/08/01 00:23:40;;;;;;;7.20;4.20;;;;;;;17.18;83.39;97185.03;107208;1273;22543;-78
2023/08/01 00:26:08;;;;;;;6.80;4.70;;;;;;;17.20;83.37;97188.17;107251;1273;24245;-79
2023/08/01 00:28:36;;;;;;;8.60;4.60;;;;;;;17.20;83.19;97184.30;107176;1273;217907;-79
2023/08/01 00:31:05;;;;;;;7.30;4.00;;;;;;;17.19;83.18;97178.98;107280;1273;22532;-79
2023/08/01 00:33:33;;;;;;;5.30;4.20;;;;;;;17.17;83.08;97173.11;107256;1252;22522;-79
2023/08/01 00:36:02;;;;;;;7.30;4.50;;;;;;;17.13;82.86;97170.64;107298;1273;24333;-79
2023/08/01 00:38:30;;;;;;;8.50;4.30;;;;;;;17.07;82.64;97170.83;107250;1273;25495;-79
2023/08/01 00:40:58;;;;;;;7.40;4.40;;;;;;;17.02;82.57;97171.20;107250;1273;25301;-79
2023/08/01 00:43:26;;;;;;;6.80;4.20;;;;;;;17.00;82.61;97163.52;107278;1273;22549;-79
2023/08/01 00:46:00;;;;;;;7.10;4.50;;;;;;;17.01;82.61;97163.55;107319;1273;24365;-78
2023/08/01 00:48:29;;;;;;;7.20;5.10;;;;;;;17.02;82.51;97160.23;107337;1273;24238;-78
2023/08/01 00:51:00;;;;;;;6.40;4.20;;;;;;;17.02;82.59;97156.96;107282;1273;24227;-78
2023/08/01 00:53:29;;;;;;;8.60;4.00;;;;;;;17.01;82.45;97147.85;107289;1273;24205;-79
2023/08/01 00:55:58;;;;;;;6.40;4.20;;;;;;;17.00;82.38;97144.85;107346;1273;22527;-80
2023/08/01 00:58:26;;;;;;;6.90;4.20;;;;;;;16.98;82.31;97142.02;107319;1273;23833;-79
2023/08/01 01:00:55;;;;;;;8.10;4.30;;;;;;;16.96;82.05;97141.60;107287;1273;26579;-79
2023/08/01 01:03:24;;;;;;;7.30;3.90;;;;;;;16.93;82.00;97136.57;107221;1267;22542;-79
2023/08/01 01:06:07;;;;;;;6.70;4.50;;;;;;;16.92;81.94;97135.23;107443;1273;24379;-79
2023/08/01 01:08:35;;;;;;;5.90;3.90;;;;;;;16.92;81.81;97133.67;107248;1273;22938;-79
2023/08/01 01:11:04;;;;;;;7.30;3.90;;;;;;;16.93;81.65;97122.48;107276;1273;22518;-79
2023/08/01 01:13:32;;;;;;;5.70;3.70;;;;;;;16.91;81.50;97118.73;107013;1273;24418;-79
2023/08/01 01:16:01;;;;;;;6.70;4.00;;;;;;;16.88;81.53;97115.48;107387;1273;24328;-79
2023/08/01 01:18:29;;;;;;;5.50;4.00;;;;;;;16.86;81.48;97110.61;107368;1273;22512;-79
2023/08/01 01:20:56;;;;;;;8.80;4.30;;;;;;;16.83;81.33;97105.33;107469;1273;22644;-78
2023/08/01 01:23:26;;;;;;;7.40;4.10;;;;;;;16.79;81.19;97105.04;107180;1273;22581;-79
2023/08/01 01:25:57;;;;;;;7.90;3.80;;;;;;;16.78;81.23;97101.67;107015;1273;22543;-78
2023/08/01 01:28:26;;;;;;;10.00;3.80;;;;;;;16.78;81.22;97092.51;106928;1273;22522;-78
2023/08/01 01:30:55;;;;;;;6.00;4.00;;;;;;;16.77;81.15;97088.37;107205;1263;24308;-79
2023/08/01 01:33:23;;;;;;;5.10;3.70;;;;;;;16.74;81.04;97088.27;107277;1273;25697;-78
2023/08/01 01:35:51;;;;;;;6.70;4.10;;;;;;;16.69;80.97;97087.88;107306;1273;25437;-78
2023/08/01 01:38:19;;;;;;;5.60;3.80;;;;;;;16.65;80.97;97079.39;107206;1273;22617;-79
2023/08/01 01:40:47;;;;;;;5.10;4.00;;;;;;;16.59;80.74;97080.90;107262;1273;24196;-78
2023/08/01 01:43:15;;;;;;;6.10;4.20;;;;;;;16.53;80.71;97073.95;107244;1273;25460;-78
2023/08/01 01:45:43;;;;;;;6.40;4.10;;;;;;;16.49;80.63;97071.61;107227;1273;25236;-78
2023/08/01 01:48:11;;;;;;;7.60;3.90;;;;;;;16.44;80.59;97064.91;107223;1273;22641;-78
2023/08/01 01:50:39;;;;;;;6.50;4.10;;;;;;;16.43;80.88;97061.62;107336;1273;24108;-78
2023/08/01 01:53:07;;;;;;;9.00;4.80;;;;;;;16.40;80.69;97053.02;107223;1273;22525;-78
2023/08/01 01:55:35;;;;;;;7.70;3.80;;;;;;;16.32;80.64;97048.11;107253;1273;22539;-78
2023/08/01 01:58:03;;;;;;;5.90;4.30;;;;;;;16.22;80.76;97045.42;106917;1273;22634;-78
2023/08/01 02:00:31;;;;;;;7.00;4.10;;;;;;;16.15;80.65;97040.46;106767;1273;22624;-77
2023/08/01 02:03:00;;;;;;;6.80;3.70;;;;;;;16.09;80.75;97036.68;107008;1273;22508;-77
2023/08/01 02:05:29;;;;;;;5.60;4.20;;;;;;;16.04;80.82;97030.83;107152;1273;22527;-81
2023/08/01 02:07:58;;;;;;;5.70;3.90;;;;;;;15.99;81.09;97025.35;107384;1273;25784;-79
2023/08/01 02:10:26;;;;;;;8.20;4.00;;;;;;;15.92;81.02;97028.95;107022;1263;22521;-78
2023/08/01 02:12:54;;;;;;;8.60;4.70;;;;;;;15.88;81.19;97033.36;107072;1273;26510;-78
2023/08/01 02:15:22;;;;;;;6.90;4.00;;;;;;;15.83;81.20;97030.06;106993;1273;25329;-78
2023/08/01 02:17:50;;;;;;;6.00;3.90;;;;;;;15.80;81.24;97025.02;106970;1273;25317;-78
2023/08/01 02:20:18;;;;;;;5.50;4.00;;;;;;;15.80;81.31;97022.09;106936;1273;22525;-78
2023/08/01 02:22:46;;;;;;;5.70;3.80;;;;;;;15.81;81.42;97018.14;106929;1273;25348;-78
2023/08/01 02:25:15;;;;;;;6.90;4.00;;;;;;;15.80;81.50;97017.90;107127;1266;22645;-79
2023/08/01 02:27:43;;;;;;;6.20;4.30;;;;;;;15.76;81.48;97015.78;107335;1273;25352;-79
2023/08/01 02:30:11;;;;;;;6.70;4.20;;;;;;;15.72;81.54;97014.45;107219;1273;22567;-79
2023/08/01 02:32:39;;;;;;;8.50;4.60;;;;;;;15.68;81.53;97011.70;107279;1273;22581;-79
2023/08/01 02:35:07;;;;;;;8.90;4.30;;;;;;;15.67;81.63;97011.45;107323;1273;24925;-79
2023/08/01 02:37:35;;;;;;;6.30;4.10;;;;;;;15.69;81.61;97004.38;107318;1273;22541;-79
2023/08/01 02:40:07;;;;;;;5.70;3.80;;;;;;;15.69;81.72;97007.23;107311;1263;22626;-79
2023/08/01 02:42:35;;;;;;;7.30;4.20;;;;;;;15.68;81.87;97004.44;107312;1262;22522;-79
2023/08/01 02:45:03;;;;;;;6.40;4.20;;;;;;;15.69;81.98;97001.89;107348;1273;25264;-79
2023/08/01 02:47:31;;;;;;;8.40;4.50;;;;;;;15.69;81.88;96999.48;107321;1273;24382;-79
2023/08/01 02:49:59;;;;;;;8.90;4.80;;;;;;;15.67;81.78;96996.55;107246;1273;22528;-79
2023/08/01 02:52:28;;;;;;;8.90;5.00;;;;;;;15.65;81.74;96993.87;107226;1273;22519;-79
2023/08/01 02:54:56;;;;;;;8.30;4.40;;;;;;;15.68;82.25;96989.36;107222;1273;22622;-79
2023/08/01 02:57:24;;;;;;;7.60;4.60;;;;;;;15.68;82.25;96987.75;107210;1273;22532;-79
2023/08/01 02:59:53;;;;;;;6.90;4.80;;;;;;;15.69;82.30;96989.48;107291;1273;22516;-79
2023/08/01 03:02:21;;;;;;;8.90;4.50;;;;;;;15.69;82.40;96987.22;107310;1256;23886;-79
2023/08/01 03:04:49;;;;;;;8.90;4.20;;;;;;;15.69;82.34;96984.27;107308;1273;24072;-79
2023/08/01 03:07:17;;;;;;;6.70;4.50;;;;;;;15.69;82.39;96986.14;107319;1273;25306;-79
2023/08/01 03:09:45;;;;;;;5.80;4.10;;;;;;;15.68;82.39;96982.55;107319;1273;22580;-79
2023/08/01 03:12:13;;;;;;;6.30;4.30;;;;;;;15.68;82.51;96978.35;107375;1273;24462;-79
2023/08/01 03:14:43;;;;;;;7.80;4.70;;;;;;;15.73;82.55;96977.14;107363;1273;22513;-80
2023/08/01 03:17:11;;;;;;;5.00;3.90;;;;;;;15.78;82.65;96978.80;107297;1273;23779;-79
2023/08/01 03:19:39;;;;;;;8.30;4.90;;;;;;;15.80;82.65;96976.05;107266;1273;24225;-79
2023/08/01 03:22:09;;;;;;;9.60;5.00;;;;;;;15.80;82.71;96976.14;107193;1273;22561;-78
2023/08/01 03:24:37;;;;;;;9.70;5.10;;;;;;;15.81;82.79;96978.95;107240;1273;22525;-78
2023/08/01 03:27:05;;;;;;;6.70;4.40;;;;;;;15.82;82.87;96981.52;107192;1273;22607;-79
2023/08/01 03:29:33;;;;;;;8.40;4.50;;;;;;;15.81;82.85;96975.08;107274;1273;23225;-79
2023/08/01 03:32:01;;;;;;;7.20;4.80;;;;;;;15.85;82.93;96968.96;107299;1273;25332;-79
2023/08/01 03:34:29;;;;;;;6.00;4.30;;;;;;;15.91;82.96;96966.83;107270;1259;24356;-79
2023/08/01 03:36:58;;;;;;;7.10;4.80;;;;;;;15.99;83.09;96967.84;107330;1273;22606;-79
2023/08/01 03:39:26;;;;;;;7.50;4.80;;;;;;;16.06;83.09;96958.20;107308;1273;22571;-79
2023/08/01 03:41:54;;;;;;;7.80;4.80;;;;;;;16.11;83.04;96959.86;107317;1273;24260;-79
2023/08/01 03:44:23;;;;;;;7.30;4.10;;;;;;;16.17;83.22;96958.58;107323;1273;22637;-79
2023/08/01 03:46:51;;;;;;;7.20;4.00;;;;;;;16.25;83.27;96954.92;107336;1273;25918;-79
2023/08/01 03:49:22;;;;;;;8.20;4.40;;;;;;;16.31;83.18;96952.96;107319;1273;24288;-79
2023/08/01 03:51:50;;;;;;;6.30;4.40;;;;;;;16.41;83.18;96950.65;107497;1273;22741;-79
2023/08/01 03:54:18;;;;;;;7.20;4.20;;;;;;;16.51;83.13;96946.86;107398;1273;25396;-79
2023/08/01 03:56:46;;;;;;;6.90;4.10;;;;;;;16.58;83.10;96948.78;107512;1273;25326;-79
2023/08/01 03:59:15;;;;;;;5.50;4.00;;;;;;;16.63;83.05;96940.95;107295;1273;25375;-79
2023/08/01 04:01:43;;;;;;;8.60;4.30;;;;;;;16.67;82.92;96939.09;107309;1273;22877;-79
2023/08/01 04:04:11;;;;;;;9.00;4.60;;;;;;;16.73;82.80;96942.45;107543;1256;22662;-80
2023/08/01 04:06:39;;;;;;;6.70;3.80;;;;;;;16.77;82.72;96942.02;107486;1273;22623;-79
2023/08/01 04:09:08;;;;;;;7.30;3.90;;;;;;;16.82;82.49;96941.70;107309;1273;22523;-79
2023/08/01 04:11:36;;;;;;;5.70;3.90;;;;;;;16.86;82.40;96939.44;107323;1273;22654;-79
2023/08/01 04:14:04;;;;;;;6.60;4.10;;;;;;;16.94;82.24;96946.34;107321;1273;22666;-79
2023/08/01 04:16:32;;;;;;;5.00;4.10;;;;;;;17.01;82.37;96945.99;107295;1250;25483;-79
2023/08/01 04:19:00;;;;;;;9.60;4.30;;;;;;;17.06;82.16;96943.17;107279;1273;23202;-79
2023/08/01 04:21:28;;;;;;;7.10;4.50;;;;;;;17.07;82.04;96937.61;107320;1273;25440;-79
2023/08/01 04:23:56;;;;;;;9.10;4.30;;;;;;;17.08;82.01;96935.98;107241;1273;22510;-79
2023/08/01 04:26:24;;;;;;;7.00;4.40;;;;;;;17.09;81.69;96932.80;107270;1273;23162;-79
2023/08/01 04:28:52;;;;;;;8.50;6.70;;;;;;;17.08;81.59;96929.23;107383;1273;22986;-79
2023/08/01 04:31:19;;;;;;;7.60;4.60;;;;;;;17.09;81.48;96928.23;107221;1273;24227;-79
2023/08/01 04:33:47;;;;;;;8.50;4.10;;;;;;;17.10;81.29;96928.94;107348;1273;24319;-79
2023/08/01 04:36:15;;;;;;;5.50;4.20;;;;;;;17.12;81.32;96928.35;107278;1273;23125;-79
2023/08/01 04:38:43;;;;;;;6.50;4.00;;;;;;;17.15;81.24;96928.33;107293;1273;22641;-79
2023/08/01 04:41:11;;;;;;;7.20;4.00;;;;;;;17.17;81.20;96924.55;107329;1273;22732;-80
2023/08/01 04:43:39;;;;;;;10.20;4.50;;;;;;;17.18;80.93;96921.92;107255;1273;25393;-78
2023/08/01 04:46:07;;;;;;;6.50;4.10;;;;;;;17.21;81.08;96919.39;107322;1273;25311;-79
2023/08/01 04:48:36;;;;;;;10.70;4.30;;;;;;;17.24;80.80;96919.91;107342;1273;22927;-79
2023/08/01 04:51:04;;;;;;;7.30;4.10;;;;;;;17.30;80.74;96916.80;107403;1273;22672;-80
2023/08/01 04:53:32;;;;;;;7.30;4.00;;;;;;;17.38;80.74;96910.94;107483;1270;25231;-79
2023/08/01 04:56:00;;;;;;;9.50;4.30;;;;;;;17.49;80.59;96912.17;107481;1273;22525;-78
2023/08/01 04:58:30;;;;;;;6.90;3.80;;;;;;;17.57;80.65;96915.71;107358;1273;26650;-78
2023/08/01 05:00:58;;;;;;;8.40;4.10;;;;;;;17.65;80.26;96917.30;106971;1273;22521;-78
2023/08/01 05:03:26;;;;;;;11.80;4.10;;;;;;;17.72;80.20;96918.86;106958;1273;22598;-78
2023/08/01 05:05:54;;;;;;;7.40;4.00;;;;;;;17.78;79.97;96919.67;107301;1273;25385;-79
2023/08/01 05:08:22;;;;;;;6.50;4.30;;;;;;;17.84;79.90;96917.96;106991;1273;22538;-79
2023/08/01 05:10:50;;;;;;;5.70;3.90;;;;;;;17.88;79.46;96916.77;107274;1273;22528;-78
2023/08/01 05:13:19;;;;;;;5.40;3.40;;;;;;;17.93;79.56;96911.77;106998;1273;25335;-79
2023/08/01 05:15:47;;;;;;;6.60;3.80;;;;;;;18.03;79.63;96912.35;107359;1273;23296;-79
2023/08/01 05:18:17;;;;;;;7.90;4.20;;;;;;;18.14;79.35;96912.70;106988;1273;22528;-79
2023/08/01 05:20:45;;;;;;;11.40;4.20;;;;;;;18.25;79.36;96908.64;107370;1273;24455;-79
2023/08/01 05:23:13;;;;;;;13.00;4.70;;;;;;;18.37;79.28;96914.21;107103;1273;25370;-79
2023/08/01 05:25:41;;;;;;;7.50;4.10;;;;;;;18.44;79.16;96915.30;107249;1257;22584;-79
2023/08/01 05:28:09;;;;;;;7.20;4.10;;;;;;;18.49;78.92;96920.26;107302;1273;24252;-79
2023/08/01 05:30:37;;;;;;;7.00;3.90;;;;;;;18.46;78.54;96916.02;107345;1273;22542;-79
2023/08/01 05:33:05;;;;;;;8.90;4.20;;;;;;;18.47;78.74;96924.92;106982;1273;22546;-79
2023/08/01 05:35:33;;;;;;;14.00;4.10;;;;;;;18.50;78.17;96915.75;107275;1273;24366;-79
2023/08/01 05:38:01;;;;;;;11.70;4.30;;;;;;;18.48;78.09;96916.28;107027;1273;22606;-78
2023/08/01 05:40:29;;;;;;;11.30;4.60;;;;;;;18.49;77.92;96916.29;106985;1273;24373;-79
2023/08/01 05:42:57;;;;;;;6.60;4.00;;;;;;;18.52;78.08;96915.22;107336;1273;25491;-78
2023/08/01 05:45:25;;;;;;;6.10;3.80;;;;;;;18.56;77.91;96914.09;107002;1273;22681;-79
2023/08/01 05:47:53;;;;;;;6.70;3.80;;;;;;;18.61;77.87;96910.40;107019;1262;22626;-79
2023/08/01 05:50:21;;;;;;;6.90;4.40;;;;;;;18.68;77.64;96905.55;106993;1263;25427;-79
2023/08/01 05:52:49;;;;;;;8.70;4.10;;;;;;;18.73;77.39;96902.34;107306;1273;24366;-79
2023/08/01 05:55:17;;;;;;;9.00;3.70;;;;;;;18.80;77.30;96905.23;107368;1273;25275;-79
2023/08/01 05:57:45;;;;;;;7.70;4.20;;;;;;;18.89;77.47;96902.64;107194;1273;22537;-79
2023/08/01 06:00:14;;;;;;;7.00;3.70;;;;;;;19.00;77.40;96906.95;107223;1273;22515;-79
2023/08/01 06:02:42;;;;;;;7.60;3.90;;;;;;;19.08;77.44;96910.29;107244;1273;22530;-79
2023/08/01 06:05:10;;;;;;;6.50;3.60;;;;;;;19.16;76.99;96910.02;107299;1273;22586;-80
2023/08/01 06:07:38;;;;;;;9.90;5.10;;;;;;;19.20;76.82;96903.20;107346;1273;24334;-79
2023/08/01 06:10:06;;;;;;;7.00;3.90;;;;;;;19.21;76.55;96901.09;107360;1273;22624;-79
2023/08/01 06:12:35;;;;;;;6.20;4.00;;;;;;;19.20;76.45;96902.73;107328;1273;25201;-79
2023/08/01 06:15:04;;;;;;;6.20;4.10;;;;;;;19.19;76.14;96909.91;107297;1273;22766;-79
2023/08/01 06:17:32;;;;;;;7.40;4.40;;;;;;;19.18;75.98;96906.70;107293;1273;25210;-79
2023/08/01 06:20:04;;;;;;;9.40;4.70;;;;;;;19.17;75.84;96904.27;107333;1273;22535;-79
2023/08/01 06:22:32;;;;;;;5.40;3.90;;;;;;;19.21;76.04;96904.06;107296;1273;25386;-79
2023/08/01 06:25:00;;;;;;;8.00;3.80;;;;;;;19.28;76.00;96902.79;107278;1273;22654;-79
2023/08/01 06:27:28;;;;;;;10.50;4.50;;;;;;;19.35;75.84;96900.72;107204;1273;25493;-79
2023/08/01 06:29:56;;;;;;;6.60;4.20;;;;;;;19.42;75.80;96902.02;106978;1273;22640;-79
2023/08/01 06:32:24;;;;;;;7.70;4.20;;;;;;;19.48;75.87;96897.92;107326;1273;22738;-79
2023/08/01 06:34:52;;;;;;;5.70;3.90;;;;;;;19.56;76.03;96893.74;107359;1273;22659;-79
2023/08/01 06:37:20;;;;;;;7.10;4.40;;;;;;;19.65;76.00;96892.57;107048;1270;22585;-79
2023/08/01 06:39:48;;;;;;;8.60;4.10;;;;;;;19.72;75.77;96889.48;107001;1273;22651;-79
2023/08/01 06:42:16;;;;;;;12.10;5.40;;;;;;;19.80;75.97;96887.10;106959;1273;22517;-79
2023/08/01 06:44:45;;;;;;;7.80;4.10;;;;;;;19.88;76.07;96887.54;106988;1273;25335;-79
2023/08/01 06:47:13;;;;;;;8.80;4.00;;;;;;;19.96;75.99;96885.77;107226;1273;22530;-79
2023/08/01 06:49:42;;;;;;;9.60;4.70;;;;;;;20.00;75.99;96884.67;106987;1253;22789;-79
2023/08/01 06:52:09;;;;;;;7.80;4.30;;;;;;;20.02;75.76;96886.33;106993;1273;22623;-79
2023/08/01 06:54:37;;;;;;;6.80;3.80;;;;;;;20.01;75.56;96882.67;107324;1273;25383;-79
2023/08/01 06:57:07;;;;;;;6.30;4.50;;;;;;;20.03;75.71;96881.73;106970;1273;25408;-79
2023/08/01 06:59:35;;;;;;;7.50;4.20;;;;;;;20.06;75.82;96877.60;106979;1273;22540;-79
2023/08/01 07:02:03;;;;;;;53.40;48.30;;;;;;;20.10;75.58;96875.18;106928;1273;24264;-79
2023/08/01 07:04:31;;;;;;;8.10;5.40;;;;;;;20.16;75.86;96868.41;106930;1273;25355;-79
2023/08/01 07:06:59;;;;;;;11.50;4.80;;;;;;;20.27;76.01;96862.49;106924;1273;24374;-79
2023/08/01 07:09:27;;;;;;;10.20;4.50;;;;;;;20.42;76.14;96867.91;106910;1273;22517;-79
2023/08/01 07:11:55;;;;;;;11.60;4.80;;;;;;;20.59;76.21;96867.58;106948;1273;22528;-79
2023/08/01 07:14:23;;;;;;;6.00;4.30;;;;;;;20.75;76.07;96864.61;106925;1262;23030;-80
2023/08/01 07:16:51;;;;;;;9.60;4.60;;;;;;;20.79;75.75;96857.88;107239;1273;22531;-80
2023/08/01 07:19:19;;;;;;;10.20;4.90;;;;;;;20.82;75.67;96857.73;107224;1273;24214;-80
2023/08/01 07:21:48;;;;;;;10.90;5.40;;;;;;;20.85;75.72;96859.15;107332;1273;22535;-80
2023/08/01 07:24:16;;;;;;;13.00;5.10;;;;;;;20.92;75.64;96857.80;106917;1273;24432;-80
2023/08/01 07:26:44;;;;;;;12.10;5.90;;;;;;;21.01;75.49;96857.02;107029;1273;24366;-80
2023/08/01 07:29:15;;;;;;;9.20;6.20;;;;;;;21.14;75.42;96854.42;107229;1273;25278;-80
2023/08/01 07:31:44;;;;;;;8.90;5.30;;;;;;;21.23;74.95;96849.80;107236;1273;22520;-80
2023/08/01 07:34:14;;;;;;;10.30;5.30;;;;;;;21.36;74.94;96849.95;107263;1273;22772;-81
2023/08/01 07:36:42;;;;;;;7.60;5.30;;;;;;;21.46;74.92;96848.75;106956;1273;22895;-80
2023/08/01 07:39:10;;;;;;;9.70;5.10;;;;;;;21.61;74.96;96846.51;106919;1273;22535;-79
2023/08/01 07:41:38;;;;;;;8.50;4.40;;;;;;;21.71;74.78;96844.91;106950;1273;24225;-79
2023/08/01 07:44:06;;;;;;;5.90;4.30;;;;;;;21.78;74.28;96842.85;106944;1273;22649;-79
2023/08/01 07:46:34;;;;;;;7.20;4.30;;;;;;;21.83;74.26;96835.47;106905;1273;22532;-79
2023/08/01 07:49:02;;;;;;;11.10;4.20;;;;;;;21.87;74.31;96833.24;106940;1273;22785;-80
2023/08/01 07:51:30;;;;;;;12.10;4.40;;;;;;;21.91;74.20;96834.57;106911;1273;22640;-80
2023/08/01 07:53:58;;;;;;;8.50;4.50;;;;;;;21.94;74.43;96835.48;107266;1273;22633;-80
2023/08/01 07:56:27;;;;;;;9.40;4.80;;;;;;;21.99;73.98;96835.61;106923;1273;22613;-80
2023/08/01 07:58:55;;;;;;;8.20;5.10;;;;;;;22.01;73.96;96839.93;106916;1273;22570;-79
2023/08/01 08:01:23;;;;;;;14.10;5.30;;;;;;;22.10;74.32;96839.17;106910;1273;24449;-79
2023/08/01 08:03:51;;;;;;;8.20;4.90;;;;;;;22.26;74.30;96835.96;107256;1273;22528;-79
2023/08/01 08:06:21;;;;;;;7.00;4.70;;;;;;;22.42;73.97;96830.45;106933;1273;25469;-80
2023/08/01 08:08:49;;;;;;;7.80;5.50;;;;;;;22.55;73.82;96826.36;107277;1273;22516;-80
2023/08/01 08:11:17;;;;;;;12.70;5.60;;;;;;;22.72;73.93;96832.03;107088;1273;22781;-79
2023/08/01 08:13:46;;;;;;;8.00;5.60;;;;;;;22.78;73.52;96832.31;106932;1273;24375;-79
2023/08/01 08:16:14;;;;;;;11.20;5.20;;;;;;;22.78;73.62;96829.70;106983;1273;25736;-79
2023/08/01 08:18:42;;;;;;;12.20;5.10;;;;;;;22.76;73.40;96832.24;106919;1273;22803;-79
2023/08/01 08:21:10;;;;;;;8.90;5.30;;;;;;;22.73;73.66;96833.92;106944;1273;22541;-80
2023/08/01 08:23:38;;;;;;;8.80;5.50;;;;;;;22.70;73.48;96833.15;107297;1273;22623;-80
2023/08/01 08:26:06;;;;;;;10.10;4.90;;;;;;;22.66;73.67;96834.60;107248;1273;22573;-80
2023/08/01 08:28:36;;;;;;;8.40;5.40;;;;;;;22.61;73.45;96839.58;107289;1273;22514;-79
2023/08/01 08:31:04;;;;;;;8.10;5.30;;;;;;;22.54;73.42;96839.31;107337;1273;25406;-79
2023/08/01 08:33:32;;;;;;;7.30;4.30;;;;;;;22.43;73.30;96838.05;106920;1273;25275;-79
2023/08/01 08:36:01;;;;;;;7.80;4.00;;;;;;;22.34;73.50;96834.11;106923;1273;22535;-79
2023/08/01 08:38:28;;;;;;;8.30;4.90;;;;;;;22.32;73.81;96827.46;106906;1273;24184;-79
2023/08/01 08:41:00;;;;;;;9.60;5.30;;;;;;;22.40;74.07;96824.20;106911;1273;22507;-80
2023/08/01 08:43:31;;;;;;;12.90;4.30;;;;;;;22.46;73.90;96816.08;106913;1273;22702;-80
2023/08/01 08:46:01;;;;;;;6.40;4.30;;;;;;;22.51;73.99;96811.34;107013;1273;25257;-79
2023/08/01 08:48:30;;;;;;;6.60;4.10;;;;;;;22.56;73.95;96809.24;107306;1273;22534;-79
2023/08/01 08:51:00;;;;;;;9.20;3.80;;;;;;;22.58;73.66;96807.59;107282;1273;24306;-79
2023/08/01 08:53:32;;;;;;;6.10;4.60;;;;;;;22.60;73.79;96805.38;107024;1273;22653;-79
2023/08/01 08:56:02;;;;;;;8.60;5.30;;;;;;;22.61;73.82;96808.66;106979;1273;23496;-79
2023/08/01 08:58:31;;;;;;;6.30;4.70;;;;;;;22.62;73.83;96810.08;107002;1273;22578;-80
2023/08/01 09:01:03;;;;;;;8.50;4.50;;;;;;;22.64;73.33;96807.07;106995;1273;22610;-80
2023/08/01 09:03:31;;;;;;;8.00;4.40;;;;;;;22.66;73.66;96806.36;106952;1273;25284;-80
2023/08/01 09:06:15;;;;;;;9.80;5.20;;;;;;;22.71;73.43;96807.33;107265;1273;22583;-79
2023/08/01 09:09:10;;;;;;;7.20;5.10;;;;;;;22.73;73.66;96806.77;107024;1273;25477;-80
2023/08/01 09:11:50;;;;;;;10.20;5.50;;;;;;;22.73;73.45;96796.56;106936;1273;22514;-79
2023/08/01 09:14:19;;;;;;;8.60;5.20;;;;;;;22.73;73.55;96798.38;106960;1273;25432;-78
2023/08/01 09:16:48;;;;;;;8.20;5.40;;;;;;;22.71;73.40;96798.00;106936;1273;22521;-80
2023/08/01 09:19:18;;;;;;;12.00;5.70;;;;;;;22.68;73.47;96792.92;107178;1273;22521;-79
2023/08/01 09:21:47;;;;;;;7.10;5.40;;;;;;;22.74;73.48;96790.05;107170;1273;22572;-80
2023/08/01 09:24:17;;;;;;;9.60;5.40;;;;;;;22.84;73.58;96793.02;107268;1273;22640;-80
2023/08/01 09:26:47;;;;;;;12.80;6.40;;;;;;;22.97;73.65;96788.30;107205;1273;23247;-80
2023/08/01 09:29:20;;;;;;;7.00;5.40;;;;;;;23.09;73.74;96786.21;107324;1264;24183;-80
2023/08/01 09:31:49;;;;;;;7.00;5.30;;;;;;;23.22;73.72;96783.16;107008;1273;24223;-80
2023/08/01 09:34:23;;;;;;;7.50;5.10;;;;;;;23.31;73.40;96778.05;107396;1273;22510;-81
2023/08/01 09:36:57;;;;;;;12.20;9.00;;;;;;;23.39;73.43;96778.50;107403;1273;22563;-80
2023/08/01 09:39:25;;;;;;;12.40;5.90;;;;;;;23.51;73.50;96772.85;107193;1273;22591;-80
2023/08/01 09:42:01;;;;;;;7.60;5.20;;;;;;;23.68;73.36;96770.54;107195;1273;22637;-80
2023/08/01 09:44:29;;;;;;;7.10;5.10;;;;;;;23.81;73.42;96771.02;107327;1273;22475;-80
2023/08/01 09:47:03;;;;;;;8.10;4.90;;;;;;;23.88;73.43;96762.81;107225;1273;24439;-80
2023/08/01 09:49:31;;;;;;;8.50;4.90;;;;;;;23.92;73.66;96766.15;107102;1273;22577;-80
2023/08/01 09:52:01;;;;;;;8.00;4.50;;;;;;;23.92;72.91;96761.13;107326;1273;24103;-80
2023/08/01 09:54:29;;;;;;;7.20;4.00;;;;;;;23.77;72.40;96760.61;107363;1273;25470;-79
2023/08/01 09:56:58;;;;;;;6.30;4.40;;;;;;;23.67;72.79;96753.50;106987;1263;25508;-79
2023/08/01 09:59:26;;;;;;;7.80;4.10;;;;;;;23.59;72.84;96750.93;107312;1250;22539;-81
2023/08/01 10:01:57;;;;;;;9.90;4.10;;;;;;;23.47;72.69;96748.88;107278;1273;23226;-80
2023/08/01 10:04:30;;;;;;;7.80;4.20;;;;;;;23.33;72.59;96748.27;107373;1273;22550;-80
2023/08/01 10:07:03;;;;;;;8.20;4.30;;;;;;;23.16;72.49;96749.80;106909;1273;22518;-80
2023/08/01 10:09:33;;;;;;;9.90;4.50;;;;;;;22.97;72.65;96753.20;106998;1273;22576;-81
2023/08/01 10:12:02;;;;;;;5.60;4.20;;;;;;;22.83;73.17;96751.60;107318;1273;25352;-80
2023/08/01 10:14:33;;;;;;;6.80;3.90;;;;;;;22.69;73.53;96754.94;107302;1273;23353;-80
2023/08/01 10:17:02;;;;;;;7.90;4.40;;;;;;;22.55;73.44;96756.32;107279;1273;22547;-81
2023/08/01 10:19:34;;;;;;;9.10;4.50;;;;;;;22.40;73.65;96763.49;106896;1273;23886;-80
2023/08/01 10:22:04;;;;;;;8.70;4.10;;;;;;;22.22;73.79;96761.51;106889;1273;23000;-79
2023/08/01 10:24:33;;;;;;;7.10;4.30;;;;;;;22.06;73.95;96766.23;107318;1273;22785;-79
2023/08/01 10:27:15;;;;;;;8.70;4.60;;;;;;;21.89;74.15;96766.64;107322;1273;22641;-79
2023/08/01 10:29:43;;;;;;;8.10;4.80;;;;;;;21.76;74.36;96769.22;106913;1273;22514;-80
2023/08/01 10:32:11;;;;;;;10.10;4.20;;;;;;;21.65;74.78;96769.82;107274;1262;25525;-79
2023/08/01 10:34:50;;;;;;;7.30;4.20;;;;;;;21.53;75.06;96764.55;107268;1266;24371;-80
2023/08/01 10:37:18;;;;;;;7.30;4.40;;;;;;;21.44;75.48;96770.92;107274;1273;25472;-80
2023/08/01 10:39:56;;;;;;;8.40;4.50;;;;;;;21.31;75.65;96771.02;107268;1273;22633;-80
2023/08/01 10:42:25;;;;;;;8.20;4.70;;;;;;;21.21;75.87;96771.76;106999;1273;22627;-80
2023/08/01 10:44:53;;;;;;;10.40;5.00;;;;;;;21.14;76.47;96773.27;106896;1273;24486;-80
2023/08/01 10:47:27;;;;;;;7.60;4.50;;;;;;;21.08;76.64;96778.21;107281;1273;22777;-80
2023/08/01 10:49:55;;;;;;;10.00;4.60;;;;;;;21.02;77.37;96781.27;106989;1273;23480;-80
2023/08/01 10:52:27;;;;;;;8.90;5.10;;;;;;;20.92;77.53;96780.91;106862;1273;22535;-80
2023/08/01 10:54:59;;;;;;;7.80;5.10;;;;;;;20.79;78.16;96782.17;107051;1273;25268;-80
2023/08/01 10:57:29;;;;;;;10.00;4.50;;;;;;;20.68;78.39;96782.49;107401;1273;22515;-79
2023/08/01 10:59:58;;;;;;;8.20;4.30;;;;;;;20.60;80.37;96784.61;107074;1273;22633;-80
2023/08/01 11:02:28;;;;;;;12.60;5.30;;;;;;;20.46;81.37;96786.62;107371;1273;25344;-79
2023/08/01 11:04:57;;;;;;;7.00;5.10;;;;;;;20.31;81.69;96785.29;107151;1273;24802;-80
2023/08/01 11:07:26;;;;;;;7.00;4.40;;;;;;;20.15;81.87;96784.88;107248;1273;22538;-79
2023/08/01 11:10:11;;;;;;;7.40;4.50;;;;;;;20.02;83.40;96783.45;107055;1273;24225;-79
2023/08/01 11:12:42;;;;;;;6.30;4.40;;;;;;;19.91;82.93;96781.94;106922;1273;25352;-80
2023/08/01 11:15:11;;;;;;;7.40;4.70;;;;;;;19.85;83.75;96781.38;107258;1273;25490;-79
2023/08/01 11:17:41;;;;;;;6.30;4.50;;;;;;;19.80;83.92;96781.52;106914;1273;22633;-79
2023/08/01 11:20:11;;;;;;;7.30;5.00;;;;;;;19.73;85.98;96777.20;107241;1273;22522;-79
2023/08/01 11:23:04;;;;;;;10.30;4.30;;;;;;;19.65;85.95;96776.86;107220;1273;22599;-79
2023/08/01 11:25:49;;;;;;;7.10;5.00;;;;;;;19.58;86.15;96773.45;106949;1273;25374;-79
2023/08/01 11:28:17;;;;;;;6.80;4.40;;;;;;;19.50;87.33;96774.36;107298;1273;25419;-79
2023/08/01 11:30:46;;;;;;;10.40;4.40;;;;;;;19.40;87.24;96780.02;107301;1273;22644;-79
2023/08/01 11:33:23;;;;;;;7.90;4.70;;;;;;;19.34;87.96;96785.38;106855;1273;22662;-79